Time;durP1;ratioP1;P1;durP2;ratioP2;P2;SDS_P1;SDS_P2;PMS_P1;PMS_P2;Temp;Humidity;BMP_temperature;BMP_pressure;BME280_temperature;BME280_humidity;BME280_pressure;Samples;Min_cycle;Max_cycle;Signal;HPM_P1;HPM_P2
2021/01/09 00:01:24;;;;;;;16.42;8.95;;;0.70;99.90;;;;;;5086200;28;20126;-75
2021/01/09 00:03:50;;;;;;;16.80;10.10;;;0.60;99.90;;;;;;5087253;28;20539;-75
2021/01/09 00:06:16;;;;;;;16.77;9.88;;;0.50;99.90;;;;;;5068801;28;20081;-75
2021/01/09 00:08:41;;;;;;;19.70;9.13;;;0.50;99.90;;;;;;5089324;28;20138;-72
2021/01/09 00:11:07;;;;;;;14.60;9.10;;;0.80;99.90;;;;;;5088759;28;20092;-72
2021/01/09 00:13:33;;;;;;;14.77;9.07;;;0.90;99.90;;;;;;5064423;28;20100;-72
2021/01/09 00:15:58;;;;;;;16.35;9.80;;;1.00;99.90;;;;;;5085742;28;20155;-72
2021/01/09 00:18:24;;;;;;;15.45;9.30;;;0.60;99.90;;;;;;5088257;28;20084;-73
2021/01/09 00:20:50;;;;;;;17.27;9.55;;;0.40;99.90;;;;;;5089016;28;20084;-73
2021/01/09 00:23:16;;;;;;;15.27;9.00;;;0.20;99.90;;;;;;5085718;28;20538;-73
2021/01/09 00:25:41;;;;;;;16.83;9.25;;;0.00;99.90;;;;;;5086537;28;20072;-73
2021/01/09 00:28:07;;;;;;;15.20;9.95;;;0.30;99.90;;;;;;5088671;28;20108;-73
2021/01/09 00:30:33;;;;;;;14.23;9.50;;;0.30;99.90;;;;;;5068857;28;20080;-73
2021/01/09 00:32:59;;;;;;;14.73;9.18;;;0.20;99.90;;;;;;5088637;28;20088;-72
2021/01/09 00:35:24;;;;;;;14.32;8.35;;;0.10;99.90;;;;;;5083967;28;20149;-73
2021/01/09 00:37:50;;;;;;;18.08;9.18;;;0.50;99.90;;;;;;5087952;28;20081;-73
2021/01/09 00:40:16;;;;;;;14.85;9.18;;;0.50;99.90;;;;;;5088177;28;20087;-73
2021/01/09 00:42:42;;;;;;;17.23;10.05;;;0.70;99.90;;;;;;5087583;28;20089;-74
2021/01/09 00:45:09;;;;;;;13.70;8.95;;;0.60;99.90;;;;;;5086547;28;20517;-73
2021/01/09 00:47:35;;;;;;;15.73;8.35;;;0.50;99.90;;;;;;5084302;28;20077;-73
2021/01/09 00:50:01;;;;;;;16.30;9.45;;;0.40;99.90;;;;;;5088844;28;20112;-73
2021/01/09 00:52:26;;;;;;;17.55;10.48;;;0.20;99.90;;;;;;5087824;28;20153;-73
2021/01/09 00:54:52;;;;;;;18.27;10.82;;;0.00;99.90;;;;;;5087952;28;20103;-73
2021/01/09 00:57:18;;;;;;;20.48;10.50;;;0.00;99.90;;;;;;5071020;28;20080;-73
2021/01/09 00:59:43;;;;;;;18.23;9.20;;;-0.10;99.90;;;;;;5086516;28;20091;-73
2021/01/09 01:02:12;;;;;;;16.38;9.07;;;-0.20;99.90;;;;;;5088287;28;20137;-72
2021/01/09 01:04:37;;;;;;;17.42;9.70;;;0.00;99.90;;;;;;5082638;28;20093;-73
2021/01/09 01:07:03;;;;;;;16.27;9.70;;;0.00;99.90;;;;;;5086613;28;20219;-73
2021/01/09 01:09:28;;;;;;;15.57;8.55;;;0.10;99.90;;;;;;5088450;28;20708;-73
2021/01/09 01:11:54;;;;;;;16.00;9.65;;;0.00;99.90;;;;;;5085798;28;20077;-73
2021/01/09 01:14:20;;;;;;;15.10;9.60;;;0.00;99.90;;;;;;5086371;28;20521;-73
2021/01/09 01:16:50;;;;;;;14.48;8.23;;;0.30;99.90;;;;;;5088746;28;20665;-73
2021/01/09 01:19:15;;;;;;;14.90;9.18;;;0.30;99.90;;;;;;5083802;28;20073;-73
2021/01/09 01:21:41;;;;;;;14.60;8.95;;;0.40;99.90;;;;;;5076567;28;20133;-73
2021/01/09 01:24:07;;;;;;;14.55;8.80;;;0.40;99.90;;;;;;5067843;28;20456;-72
2021/01/09 01:26:32;;;;;;;15.90;9.43;;;0.50;99.90;;;;;;5086200;28;20093;-73
2021/01/09 01:29:00;;;;;;;15.98;8.85;;;0.50;99.90;;;;;;5061275;28;20519;-73
2021/01/09 01:31:26;;;;;;;14.90;8.88;;;0.30;99.90;;;;;;5068648;28;20083;-73
2021/01/09 01:33:52;;;;;;;17.02;9.85;;;0.20;99.90;;;;;;5077312;28;20096;-73
2021/01/09 01:36:18;;;;;;;17.55;9.32;;;0.10;99.90;;;;;;5067714;28;20456;-73
2021/01/09 01:38:44;;;;;;;15.20;8.65;;;0.00;99.90;;;;;;5084170;28;20616;-73
2021/01/09 01:41:10;;;;;;;14.55;9.32;;;-0.10;99.90;;;;;;5074261;28;20176;-73
2021/01/09 01:43:36;;;;;;;13.27;8.63;;;-0.10;99.90;;;;;;5087687;28;20093;-73
2021/01/09 01:46:04;;;;;;;15.35;9.45;;;-0.20;99.90;;;;;;5085368;28;20163;-73
2021/01/09 01:48:30;;;;;;;19.48;10.50;;;-0.10;99.90;;;;;;5087484;28;20285;-72
2021/01/09 01:50:56;;;;;;;16.50;9.07;;;-0.10;99.90;;;;;;5084351;28;20081;-72
2021/01/09 01:53:22;;;;;;;15.80;8.98;;;-0.20;99.90;;;;;;5087232;28;20122;-73
2021/01/09 01:55:49;;;;;;;14.80;9.98;;;-0.20;99.90;;;;;;5085514;28;20096;-72
2021/01/09 01:58:15;;;;;;;16.48;9.20;;;-0.10;99.90;;;;;;5085912;28;20528;-73
2021/01/09 02:00:46;;;;;;;14.65;8.57;;;-0.10;99.90;;;;;;5085661;28;20125;-72
2021/01/09 02:03:19;;;;;;;17.00;9.18;;;-0.20;99.90;;;;;;5086084;28;20138;-72
2021/01/09 02:06:05;;;;;;;18.75;9.40;;;-0.20;99.90;;;;;;5077589;28;20171;-72
2021/01/09 02:08:35;;;;;;;16.80;8.90;;;-0.20;99.90;;;;;;5084423;28;20065;-73
2021/01/09 02:11:07;;;;;;;15.05;8.68;;;-0.20;99.90;;;;;;5087361;28;20084;-73
2021/01/09 02:13:55;;;;;;;15.63;9.65;;;-0.20;99.90;;;;;;5087167;28;20179;-72
2021/01/09 02:16:22;;;;;;;16.85;9.77;;;-0.20;99.90;;;;;;5089748;28;20123;-73
2021/01/09 02:18:49;;;;;;;15.15;9.48;;;-0.20;99.90;;;;;;5091435;28;20593;-73
2021/01/09 02:21:40;;;;;;;15.35;9.80;;;-0.20;99.90;;;;;;5089045;28;20092;-73
2021/01/09 02:24:14;;;;;;;17.23;9.18;;;-0.20;99.90;;;;;;5086720;28;20080;-73
2021/01/09 02:26:40;;;;;;;18.92;10.23;;;-0.30;99.90;;;;;;5090099;28;20073;-73
2021/01/09 02:29:06;;;;;;;15.40;8.80;;;-0.30;99.90;;;;;;5072251;28;20509;-73
2021/01/09 02:31:41;;;;;;;14.18;9.02;;;-0.30;99.90;;;;;;5088290;28;20076;-74
2021/01/09 02:34:10;;;;;;;18.45;10.25;;;-0.20;99.90;;;;;;5089198;28;20141;-73
2021/01/09 02:36:38;;;;;;;15.90;9.57;;;0.00;99.90;;;;;;5086118;28;20089;-73
2021/01/09 02:39:04;;;;;;;15.25;9.35;;;0.00;99.90;;;;;;5090346;28;20486;-74
2021/01/09 02:41:33;;;;;;;15.63;9.35;;;-0.10;99.90;;;;;;5085418;28;20134;-73
2021/01/09 02:44:09;;;;;;;15.88;9.57;;;0.20;99.90;;;;;;5087519;28;20116;-73
2021/01/09 02:46:36;;;;;;;14.60;8.48;;;0.10;99.90;;;;;;5091639;28;20091;-73
2021/01/09 02:49:03;;;;;;;15.10;8.93;;;0.00;99.90;;;;;;5091886;28;20484;-73
2021/01/09 02:51:28;;;;;;;14.18;8.75;;;-0.10;99.90;;;;;;5089662;28;20448;-73
2021/01/09 02:53:54;;;;;;;15.90;8.80;;;-0.30;99.90;;;;;;5089458;28;20096;-73
2021/01/09 02:56:19;;;;;;;15.75;9.27;;;-0.40;99.90;;;;;;5089601;28;20122;-73
2021/01/09 02:58:45;;;;;;;14.88;10.10;;;-0.40;99.90;;;;;;5072018;28;20157;-73
2021/01/09 03:01:10;;;;;;;15.88;9.23;;;-0.50;99.90;;;;;;5071747;28;20100;-73
2021/01/09 03:03:36;;;;;;;15.57;8.60;;;-0.20;99.90;;;;;;5089634;28;20096;-73
2021/01/09 03:06:01;;;;;;;12.10;7.68;;;-0.10;99.90;;;;;;5086234;28;20083;-73
2021/01/09 03:08:27;;;;;;;14.70;9.00;;;-0.10;99.90;;;;;;5088529;28;20068;-73
2021/01/09 03:10:52;;;;;;;15.20;8.23;;;-0.10;99.90;;;;;;5088380;28;20083;-74
2021/01/09 03:13:18;;;;;;;15.15;9.25;;;-0.20;99.90;;;;;;5069274;28;20127;-73
2021/01/09 03:15:43;;;;;;;14.82;8.40;;;-0.10;99.90;;;;;;5069804;28;20169;-73
2021/01/09 03:18:09;;;;;;;16.33;9.85;;;-0.30;99.90;;;;;;5087799;28;20081;-73
2021/01/09 03:20:35;;;;;;;15.20;8.85;;;-0.20;99.90;;;;;;5087526;28;20081;-73
2021/01/09 03:23:00;;;;;;;15.63;9.13;;;-0.30;99.90;;;;;;5085093;28;20096;-73
2021/01/09 03:25:26;;;;;;;15.38;9.05;;;-0.60;99.90;;;;;;5086074;28;20083;-73
2021/01/09 03:27:51;;;;;;;15.90;8.93;;;-0.40;99.90;;;;;;5088100;28;20732;-73
2021/01/09 03:30:17;;;;;;;13.57;8.43;;;-0.30;99.90;;;;;;5090866;28;20166;-73
2021/01/09 03:32:43;;;;;;;13.63;7.85;;;-0.20;99.90;;;;;;5068536;28;20089;-73
2021/01/09 03:35:08;;;;;;;12.77;7.78;;;-0.30;99.90;;;;;;5069498;28;20549;-73
2021/01/09 03:37:34;;;;;;;13.65;8.45;;;-0.30;99.90;;;;;;5086717;28;20092;-74
2021/01/09 03:39:59;;;;;;;12.35;7.80;;;-0.50;99.90;;;;;;5098811;28;20076;-73
2021/01/09 03:42:25;;;;;;;12.32;7.85;;;-0.50;99.90;;;;;;5087369;28;20108;-73
2021/01/09 03:44:50;;;;;;;12.45;7.72;;;-0.40;99.90;;;;;;5088659;28;20110;-73
2021/01/09 03:47:16;;;;;;;13.13;8.27;;;-0.30;99.90;;;;;;5089102;28;20104;-73
2021/01/09 03:49:42;;;;;;;13.38;7.97;;;-0.30;99.90;;;;;;5089689;28;20090;-73
2021/01/09 03:52:07;;;;;;;14.75;7.95;;;-0.40;99.90;;;;;;5087970;28;20120;-73
2021/01/09 03:54:33;;;;;;;14.48;8.68;;;-0.40;99.90;;;;;;5086593;28;20459;-73
2021/01/09 03:56:58;;;;;;;12.98;7.45;;;-0.50;99.90;;;;;;5089017;28;20451;-73
2021/01/09 03:59:24;;;;;;;11.77;7.50;;;-0.30;99.90;;;;;;5086873;28;20505;-73
2021/01/09 04:01:49;;;;;;;15.20;7.78;;;0.00;99.90;;;;;;5089369;28;20080;-73
2021/01/09 04:04:15;;;;;;;12.85;7.28;;;0.10;99.90;;;;;;5084743;28;20084;-73
2021/01/09 04:06:40;;;;;;;11.98;7.88;;;0.00;99.90;;;;;;5086990;28;20076;-73
2021/01/09 04:09:06;;;;;;;13.05;8.02;;;0.30;99.90;;;;;;5087765;28;20108;-73
2021/01/09 04:11:31;;;;;;;13.48;7.30;;;0.30;99.90;;;;;;5069540;28;20532;-73
2021/01/09 04:13:57;;;;;;;12.75;7.90;;;0.40;99.90;;;;;;5069666;28;20149;-73
2021/01/09 04:16:22;;;;;;;12.77;7.88;;;0.30;99.90;;;;;;5088348;28;20106;-73
2021/01/09 04:18:48;;;;;;;12.60;7.38;;;0.40;99.90;;;;;;5087382;28;20125;-73
2021/01/09 04:21:13;;;;;;;13.60;8.15;;;0.40;99.90;;;;;;5086829;28;20097;-73
2021/01/09 04:23:39;;;;;;;12.82;7.88;;;0.40;99.90;;;;;;5088542;28;20084;-73
2021/01/09 04:26:04;;;;;;;13.05;7.95;;;0.00;99.90;;;;;;5087683;28;20179;-73
2021/01/09 04:28:30;;;;;;;12.98;7.80;;;-0.30;99.90;;;;;;5086999;28;20087;-73
2021/01/09 04:30:56;;;;;;;13.32;8.15;;;-0.30;99.90;;;;;;5086511;28;20085;-73
2021/01/09 04:33:21;;;;;;;13.25;8.38;;;-0.20;99.90;;;;;;5087266;28;20126;-73
2021/01/09 04:35:47;;;;;;;16.52;8.98;;;0.00;99.90;;;;;;5086400;28;20557;-73
2021/01/09 04:38:12;;;;;;;17.00;10.52;;;0.00;99.90;;;;;;5086781;28;20065;-73
2021/01/09 04:40:38;;;;;;;16.85;9.77;;;-0.20;99.90;;;;;;5084061;28;20068;-73
2021/01/09 04:43:03;;;;;;;16.10;10.10;;;-0.10;99.90;;;;;;5085808;28;20455;-73
2021/01/09 04:45:29;;;;;;;13.68;8.07;;;0.20;99.90;;;;;;5086536;28;20453;-73
2021/01/09 04:47:57;;;;;;;16.73;9.48;;;0.30;99.90;;;;;;5088136;28;20096;-73
2021/01/09 04:50:22;;;;;;;17.80;10.40;;;0.00;99.90;;;;;;5086875;28;20159;-73
2021/01/09 04:52:49;;;;;;;15.05;8.40;;;0.10;99.90;;;;;;5085939;28;20229;-73
2021/01/09 04:55:15;;;;;;;16.40;9.68;;;0.00;99.90;;;;;;5086793;28;20177;-73
2021/01/09 04:57:41;;;;;;;14.65;8.82;;;0.00;99.90;;;;;;5087357;28;20548;-73
2021/01/09 05:00:07;;;;;;;13.35;8.43;;;-0.30;99.90;;;;;;5088528;28;20075;-73
2021/01/09 05:02:35;;;;;;;15.10;9.40;;;-0.60;99.90;;;;;;5084964;28;20088;-73
2021/01/09 05:05:02;;;;;;;13.75;9.07;;;-0.70;99.90;;;;;;5088551;28;20084;-73
2021/01/09 05:07:27;;;;;;;17.25;8.77;;;-0.70;99.90;;;;;;5091377;28;20539;-73
2021/01/09 05:10:01;;;;;;;15.23;8.65;;;-0.60;99.90;;;;;;5095527;28;20081;-73
2021/01/09 05:12:31;;;;;;;13.27;8.45;;;-0.70;99.90;;;;;;5085667;28;20096;-72
2021/01/09 05:14:57;;;;;;;15.35;9.23;;;-0.40;99.90;;;;;;5086372;28;20092;-73
2021/01/09 05:17:24;;;;;;;18.13;9.35;;;-0.20;99.90;;;;;;5083243;28;20548;-73
2021/01/09 05:19:50;;;;;;;14.00;10.15;;;-0.30;99.90;;;;;;5084126;28;20100;-73
2021/01/09 05:22:16;;;;;;;15.27;7.57;;;-0.60;99.90;;;;;;5086264;28;20115;-73
2021/01/09 05:24:47;;;;;;;15.65;8.25;;;-0.70;99.90;;;;;;5084514;28;20088;-73
2021/01/09 05:27:16;;;;;;;15.23;8.82;;;-0.60;99.90;;;;;;5086616;28;20083;-73
2021/01/09 05:29:41;;;;;;;14.93;8.77;;;-0.70;99.90;;;;;;5087714;28;20073;-73
2021/01/09 05:32:08;;;;;;;16.75;9.45;;;-0.70;99.90;;;;;;5068711;28;20498;-73
2021/01/09 05:35:03;;;;;;;15.43;9.40;;;-0.20;99.90;;;;;;5088879;28;20142;-73
2021/01/09 05:37:28;;;;;;;13.18;7.65;;;0.00;99.90;;;;;;5063753;28;20081;-72
2021/01/09 05:39:58;;;;;;;15.95;9.25;;;0.00;99.90;;;;;;5088511;28;20160;-73
2021/01/09 05:42:25;;;;;;;13.50;8.10;;;-0.10;99.90;;;;;;5083809;28;20088;-73
2021/01/09 05:44:52;;;;;;;15.77;8.82;;;-0.10;99.90;;;;;;5068462;28;20077;-72
2021/01/09 05:47:20;;;;;;;19.02;8.90;;;0.00;99.90;;;;;;5089271;28;20193;-72
2021/01/09 05:49:46;;;;;;;15.95;9.85;;;-0.20;99.90;;;;;;5093188;28;20101;-72
2021/01/09 05:52:12;;;;;;;15.13;9.10;;;-0.10;99.90;;;;;;5092151;28;20111;-73
2021/01/09 05:54:38;;;;;;;15.10;9.98;;;-0.30;99.90;;;;;;5078514;28;20100;-73
2021/01/09 05:57:05;;;;;;;13.70;8.85;;;-0.30;99.90;;;;;;5104865;28;20087;-73
2021/01/09 05:59:33;;;;;;;14.85;8.38;;;-0.20;99.90;;;;;;5076178;28;20072;-73
2021/01/09 06:02:00;;;;;;;14.15;8.88;;;-0.30;99.90;;;;;;5089950;28;20822;-73
2021/01/09 06:04:33;;;;;;;13.35;8.52;;;-0.40;99.90;;;;;;5090942;28;20088;-73
2021/01/09 06:07:18;;;;;;;15.98;10.20;;;-0.50;99.90;;;;;;5073417;28;20430;-73
2021/01/09 06:09:49;;;;;;;16.85;10.07;;;-0.70;99.90;;;;;;5107575;28;20088;-73
2021/01/09 06:12:20;;;;;;;14.80;8.88;;;-0.90;99.90;;;;;;5090824;28;20096;-73
2021/01/09 06:14:49;;;;;;;16.25;10.32;;;-1.00;99.90;;;;;;5089657;28;20092;-73
2021/01/09 06:17:16;;;;;;;15.80;9.30;;;-0.90;99.90;;;;;;5073182;28;20171;-73
2021/01/09 06:19:42;;;;;;;17.80;10.20;;;-0.80;99.90;;;;;;5090677;28;20068;-72
2021/01/09 06:22:10;;;;;;;17.60;10.40;;;-0.90;99.90;;;;;;5072478;28;20793;-72
2021/01/09 06:24:36;;;;;;;18.88;10.35;;;-0.90;99.90;;;;;;5089452;28;20082;-72
2021/01/09 06:27:02;;;;;;;18.65;10.13;;;-0.80;99.90;;;;;;5092397;28;20155;-73
2021/01/09 06:29:29;;;;;;;21.38;10.52;;;-0.80;99.90;;;;;;5089648;28;20466;-72
2021/01/09 06:31:59;;;;;;;17.80;11.02;;;-0.80;99.90;;;;;;5091303;28;20121;-72
2021/01/09 06:34:27;;;;;;;18.40;10.52;;;-0.90;99.90;;;;;;5068871;28;20149;-73
2021/01/09 06:36:58;;;;;;;18.63;11.30;;;-0.90;99.90;;;;;;5090295;28;20079;-73
2021/01/09 06:39:27;;;;;;;16.50;10.85;;;-0.90;99.90;;;;;;5088752;28;20091;-73
2021/01/09 06:41:55;;;;;;;15.50;9.93;;;-0.80;99.90;;;;;;5089635;28;20076;-73
2021/01/09 06:44:22;;;;;;;17.98;10.10;;;-0.90;99.90;;;;;;5087813;28;20081;-73
2021/01/09 06:46:50;;;;;;;17.80;10.70;;;-0.90;99.90;;;;;;5089934;28;20112;-73
2021/01/09 06:49:20;;;;;;;18.13;10.23;;;-0.90;99.90;;;;;;5071797;28;20087;-73
2021/01/09 06:51:51;;;;;;;17.05;10.27;;;-1.00;99.90;;;;;;5089740;28;20080;-73
2021/01/09 06:54:20;;;;;;;17.20;9.43;;;-1.20;99.90;;;;;;5088414;28;20167;-73
2021/01/09 06:56:48;;;;;;;15.80;9.88;;;-1.20;99.90;;;;;;5090488;28;20164;-73
2021/01/09 06:59:30;;;;;;;17.73;9.63;;;-1.20;99.90;;;;;;5090494;28;20159;-73
2021/01/09 07:02:22;;;;;;;18.25;9.57;;;-0.80;99.90;;;;;;5088842;28;20138;-73
2021/01/09 07:04:48;;;;;;;21.02;10.40;;;-0.80;99.90;;;;;;5087994;28;20567;-73
2021/01/09 07:07:30;;;;;;;14.18;8.98;;;-0.90;99.90;;;;;;5091808;28;20084;-73
2021/01/09 07:10:05;;;;;;;17.40;10.52;;;-1.00;99.90;;;;;;5088701;28;20087;-73
2021/01/09 07:12:32;;;;;;;19.33;10.38;;;-1.10;99.90;;;;;;5074320;28;20091;-73
2021/01/09 07:15:05;;;;;;;16.92;9.98;;;-1.10;99.90;;;;;;5089056;28;20134;-73
2021/01/09 07:17:39;;;;;;;16.00;9.70;;;-1.10;99.90;;;;;;5090737;28;20108;-73
2021/01/09 07:20:08;;;;;;;15.38;8.95;;;-1.10;99.90;;;;;;5071363;28;20068;-73
2021/01/09 07:22:39;;;;;;;16.95;9.85;;;-1.00;99.90;;;;;;5088480;28;20112;-73
2021/01/09 07:25:07;;;;;;;16.98;8.82;;;-0.90;99.90;;;;;;5087206;28;20092;-73
2021/01/09 07:27:44;;;;;;;16.60;9.50;;;-0.50;99.90;;;;;;5088964;28;20115;-73
2021/01/09 07:30:16;;;;;;;15.63;9.82;;;-0.30;99.90;;;;;;5072181;28;20076;-73
2021/01/09 07:32:49;;;;;;;17.27;10.57;;;-0.50;99.90;;;;;;5087500;28;20095;-73
2021/01/09 07:35:30;;;;;;;16.40;9.55;;;-0.40;99.90;;;;;;5083408;28;20124;-73
2021/01/09 07:38:02;;;;;;;16.23;9.88;;;-0.60;99.90;;;;;;5088296;28;20073;-73
2021/01/09 07:40:32;;;;;;;18.05;10.23;;;-0.60;99.90;;;;;;5088993;28;20155;-73
2021/01/09 07:42:57;;;;;;;19.83;10.18;;;-0.70;99.90;;;;;;5067729;28;20080;-73
2021/01/09 07:45:30;;;;;;;18.67;10.10;;;-0.60;99.90;;;;;;5088747;28;20134;-73
2021/01/09 07:47:57;;;;;;;17.92;10.60;;;-0.70;99.90;;;;;;5087093;28;20456;-73
2021/01/09 07:50:22;;;;;;;16.40;11.13;;;-0.70;99.90;;;;;;5093109;28;20200;-72
2021/01/09 07:53:06;;;;;;;19.65;11.02;;;-0.60;99.90;;;;;;5089561;28;20145;-73
2021/01/09 07:55:45;;;;;;;15.93;9.50;;;-0.70;99.90;;;;;;5087730;28;20091;-72
2021/01/09 07:58:12;;;;;;;16.27;9.80;;;-0.50;99.90;;;;;;5069842;28;20076;-72
2021/01/09 08:00:41;;;;;;;17.52;10.15;;;-0.60;99.90;;;;;;5083212;28;20121;-73
2021/01/09 08:03:09;;;;;;;19.38;10.48;;;-0.50;99.90;;;;;;5085526;28;20112;-73
2021/01/09 08:05:35;;;;;;;22.85;11.93;;;-0.40;99.90;;;;;;5084948;28;20092;-73
2021/01/09 08:08:02;;;;;;;19.90;10.40;;;-0.60;99.90;;;;;;5088476;28;20103;-74
2021/01/09 08:10:35;;;;;;;20.08;10.73;;;-0.60;99.90;;;;;;5084111;28;20072;-73
2021/01/09 08:13:06;;;;;;;17.05;10.63;;;-0.60;99.90;;;;;;5086498;28;20104;-73
2021/01/09 08:15:33;;;;;;;20.23;10.95;;;-0.60;99.90;;;;;;5087655;28;20084;-73
2021/01/09 08:18:01;;;;;;;19.85;10.38;;;-0.50;99.90;;;;;;5087625;28;20072;-73
2021/01/09 08:20:27;;;;;;;18.63;9.90;;;-0.30;99.90;;;;;;5091506;28;20068;-72
2021/01/09 08:22:57;;;;;;;19.90;10.90;;;-0.30;99.90;;;;;;5086315;28;20095;-73
2021/01/09 08:25:26;;;;;;;16.20;9.98;;;-0.30;99.90;;;;;;5077598;28;20080;-72
2021/01/09 08:27:55;;;;;;;17.25;10.25;;;-0.30;99.90;;;;;;5086754;28;20100;-72
2021/01/09 08:30:27;;;;;;;19.00;10.32;;;-0.20;99.90;;;;;;5085805;28;20133;-73
2021/01/09 08:33:01;;;;;;;18.05;10.48;;;-0.20;99.90;;;;;;5078618;28;20088;-73
2021/01/09 08:35:27;;;;;;;25.05;10.82;;;-0.40;99.90;;;;;;5085901;28;20547;-71
2021/01/09 08:37:53;;;;;;;21.38;10.95;;;-0.50;99.90;;;;;;5086049;28;20079;-73
2021/01/09 08:40:19;;;;;;;17.85;10.60;;;-0.70;99.90;;;;;;5087440;28;20083;-73
2021/01/09 08:42:56;;;;;;;18.92;10.98;;;-0.70;99.90;;;;;;5087691;28;20092;-72
2021/01/09 08:45:38;;;;;;;20.90;10.95;;;-0.80;99.90;;;;;;5085386;28;20077;-75
2021/01/09 08:48:07;;;;;;;21.95;11.77;;;-0.70;99.90;;;;;;5088505;28;20085;-72
2021/01/09 08:50:36;;;;;;;20.00;11.73;;;-0.70;99.90;;;;;;5087827;28;20162;-72
2021/01/09 08:53:04;;;;;;;20.95;11.70;;;-0.60;99.90;;;;;;5069470;28;20115;-72
2021/01/09 08:55:30;;;;;;;19.85;11.43;;;-0.50;99.90;;;;;;5084839;28;20733;-72
2021/01/09 08:58:01;;;;;;;20.35;12.63;;;-0.50;99.90;;;;;;5088305;28;20080;-73
2021/01/09 09:00:29;;;;;;;20.15;10.90;;;-0.50;99.90;;;;;;5088401;28;20085;-72
2021/01/09 09:02:55;;;;;;;20.95;12.00;;;-0.30;99.90;;;;;;5085631;28;20092;-73
2021/01/09 09:05:26;;;;;;;18.50;11.27;;;-0.30;99.90;;;;;;5086200;28;20138;-73
2021/01/09 09:07:55;;;;;;;21.55;12.70;;;-0.10;99.90;;;;;;5079628;28;20168;-75
2021/01/09 09:10:24;;;;;;;25.02;11.93;;;0.20;99.90;;;;;;5082084;28;20500;-76
2021/01/09 09:12:49;;;;;;;19.63;10.98;;;0.50;99.90;;;;;;5087691;28;20141;-76
2021/01/09 09:15:30;;;;;;;19.77;11.05;;;0.70;99.90;;;;;;5088760;28;20093;-75
2021/01/09 09:17:56;;;;;;;18.42;10.85;;;0.70;99.90;;;;;;5088454;28;20076;-76
2021/01/09 09:20:24;;;;;;;22.95;12.50;;;0.80;99.90;;;;;;5089206;28;20065;-75
2021/01/09 09:22:52;;;;;;;19.35;11.55;;;0.80;99.90;;;;;;5090242;28;20301;-76
2021/01/09 09:25:24;;;;;;;16.92;11.75;;;0.90;99.90;;;;;;5086763;28;20072;-75
2021/01/09 09:27:50;;;;;;;19.70;12.07;;;0.50;99.90;;;;;;5092424;28;20081;-75
2021/01/09 09:30:20;;;;;;;23.92;13.20;;;0.40;99.90;;;;;;5093412;28;20076;-76
2021/01/09 09:32:47;;;;;;;17.80;10.55;;;0.70;99.90;;;;;;5092016;28;20131;-75
2021/01/09 09:35:23;;;;;;;26.08;14.45;;;0.40;99.90;;;;;;5089423;28;20085;-72
2021/01/09 09:37:49;;;;;;;19.60;11.38;;;0.50;99.90;;;;;;5065476;28;20068;-74
2021/01/09 09:40:23;;;;;;;19.40;10.82;;;0.70;99.90;;;;;;5076321;28;20166;-74
2021/01/09 09:42:49;;;;;;;18.55;10.77;;;0.80;99.90;;;;;;5083835;28;20143;-73
2021/01/09 09:45:16;;;;;;;20.55;10.63;;;0.80;99.90;;;;;;5065287;28;20072;-75
2021/01/09 09:47:47;;;;;;;17.23;10.85;;;0.70;99.90;;;;;;5089165;28;20532;-76
2021/01/09 09:50:13;;;;;;;19.63;10.65;;;0.70;99.90;;;;;;5069875;28;20139;-76
2021/01/09 09:52:39;;;;;;;20.35;10.45;;;0.50;99.90;;;;;;5082716;28;20093;-75
2021/01/09 09:55:06;;;;;;;23.15;12.60;;;0.70;99.90;;;;;;5083338;28;20076;-76
2021/01/09 09:57:32;;;;;;;17.80;11.32;;;0.70;99.90;;;;;;5092969;28;20073;-76
2021/01/09 10:00:12;;;;;;;18.50;11.95;;;0.60;99.90;;;;;;5090192;28;20129;-75
2021/01/09 10:02:49;;;;;;;20.40;10.80;;;0.70;99.90;;;;;;5092261;28;20131;-76
2021/01/09 10:05:15;;;;;;;21.63;11.85;;;0.50;99.90;;;;;;5087796;28;20076;-75
2021/01/09 10:07:41;;;;;;;20.25;11.20;;;0.70;99.90;;;;;;5091499;28;20494;-72
2021/01/09 10:10:14;;;;;;;18.67;11.77;;;0.30;99.90;;;;;;5073583;28;20072;-72
2021/01/09 10:12:40;;;;;;;17.73;11.30;;;0.40;99.90;;;;;;5089317;28;20176;-73
2021/01/09 10:15:07;;;;;;;22.17;12.05;;;0.50;99.90;;;;;;5091735;28;20552;-72
2021/01/09 10:17:32;;;;;;;23.85;12.70;;;0.80;99.90;;;;;;5091815;28;20198;-72
2021/01/09 10:19:58;;;;;;;23.23;13.65;;;0.90;99.90;;;;;;5090976;28;20069;-75
2021/01/09 10:22:24;;;;;;;19.90;12.57;;;1.10;99.90;;;;;;5073926;28;20579;-72
2021/01/09 10:24:49;;;;;;;24.50;13.35;;;1.20;99.90;;;;;;5089137;28;20144;-72
2021/01/09 10:27:15;;;;;;;19.48;11.73;;;1.30;99.90;;;;;;5084276;28;20077;-72
2021/01/09 10:29:40;;;;;;;22.10;12.90;;;1.20;99.90;;;;;;5091970;28;20444;-73
2021/01/09 10:32:06;;;;;;;23.17;12.65;;;1.20;99.90;;;;;;5091472;28;20100;-73
2021/01/09 10:34:31;;;;;;;20.95;12.77;;;1.20;99.90;;;;;;5089480;28;20084;-73
2021/01/09 10:36:57;;;;;;;20.85;12.43;;;1.10;99.90;;;;;;5084345;28;20533;-73
2021/01/09 10:39:22;;;;;;;21.40;13.40;;;1.20;99.90;;;;;;5079597;28;20077;-74
2021/01/09 10:41:50;;;;;;;19.75;12.77;;;1.20;99.90;;;;;;5087662;28;20141;-72
2021/01/09 10:44:15;;;;;;;20.58;11.63;;;1.30;99.90;;;;;;5086059;28;20100;-72
2021/01/09 10:46:41;;;;;;;20.20;11.43;;;1.30;99.90;;;;;;5090688;28;20119;-73
2021/01/09 10:49:07;;;;;;;20.05;12.18;;;1.10;99.90;;;;;;5088931;28;20080;-73
2021/01/09 10:51:34;;;;;;;17.50;11.00;;;0.60;99.90;;;;;;5089683;28;20077;-72
2021/01/09 10:54:03;;;;;;;18.40;12.48;;;0.80;99.90;;;;;;5090079;28;20088;-74
2021/01/09 10:56:32;;;;;;;17.17;10.68;;;0.80;99.90;;;;;;5089459;28;20072;-72
2021/01/09 10:58:58;;;;;;;23.10;13.23;;;1.00;99.90;;;;;;5089687;28;20148;-72
2021/01/09 11:01:23;;;;;;;20.30;11.73;;;0.70;99.90;;;;;;5089101;28;20143;-73
2021/01/09 11:03:49;;;;;;;18.73;10.20;;;0.90;99.90;;;;;;5090255;28;20180;-74
2021/01/09 11:06:22;;;;;;;22.45;11.55;;;1.00;99.90;;;;;;5090951;28;20081;-74
2021/01/09 11:08:48;;;;;;;19.60;11.57;;;0.70;99.90;;;;;;5096376;28;20105;-73
2021/01/09 11:11:14;;;;;;;17.83;11.82;;;0.40;99.90;;;;;;5087529;28;20444;-72
2021/01/09 11:13:40;;;;;;;21.48;11.88;;;0.30;99.90;;;;;;5082097;28;20103;-72
2021/01/09 11:16:05;;;;;;;21.38;12.02;;;0.30;99.90;;;;;;5071712;28;20104;-72
2021/01/09 11:18:31;;;;;;;19.63;11.85;;;0.30;99.90;;;;;;5072178;28;20155;-72
2021/01/09 11:20:56;;;;;;;19.20;12.52;;;0.30;99.90;;;;;;5070690;28;20087;-73
2021/01/09 11:23:22;;;;;;;21.27;11.75;;;0.40;99.90;;;;;;5061892;28;20176;-73
2021/01/09 11:25:48;;;;;;;18.85;11.50;;;0.60;99.90;;;;;;5069544;28;20080;-73
2021/01/09 11:28:15;;;;;;;18.17;10.45;;;0.80;99.90;;;;;;5089741;28;20073;-73
2021/01/09 11:30:43;;;;;;;20.98;12.38;;;1.00;99.90;;;;;;5089407;28;20072;-73
2021/01/09 11:33:08;;;;;;;20.00;12.82;;;0.90;99.90;;;;;;5083092;28;20507;-73
2021/01/09 11:35:34;;;;;;;24.73;13.38;;;1.10;99.90;;;;;;5089173;28;20187;-73
2021/01/09 11:38:00;;;;;;;24.02;13.90;;;1.20;99.90;;;;;;5088610;28;20175;-73
2021/01/09 11:40:26;;;;;;;21.08;12.75;;;1.30;99.90;;;;;;5080995;28;20069;-73
2021/01/09 11:42:52;;;;;;;22.13;13.93;;;1.20;99.90;;;;;;5089963;28;20176;-72
2021/01/09 11:45:19;;;;;;;22.70;13.80;;;1.20;99.90;;;;;;5090191;28;20498;-72
2021/01/09 11:47:45;;;;;;;19.08;11.82;;;1.30;99.90;;;;;;5087318;28;20134;-73
2021/01/09 11:50:11;;;;;;;20.50;12.10;;;1.20;99.90;;;;;;5089319;28;20681;-73
2021/01/09 11:52:37;;;;;;;20.10;11.80;;;1.30;99.90;;;;;;5089712;28;20647;-72
2021/01/09 11:55:04;;;;;;;37.92;22.05;;;1.20;99.90;;;;;;5087642;28;20171;-74
2021/01/09 11:57:30;;;;;;;23.55;14.43;;;1.20;99.90;;;;;;5088156;28;20160;-73
2021/01/09 11:59:55;;;;;;;31.65;17.38;;;1.20;99.90;;;;;;5085720;28;20094;-72
2021/01/09 12:02:21;;;;;;;25.08;13.32;;;1.10;99.90;;;;;;5070699;28;20089;-73
2021/01/09 12:04:47;;;;;;;20.65;12.57;;;1.20;99.90;;;;;;5057104;28;20177;-73
2021/01/09 12:07:12;;;;;;;32.15;18.70;;;1.00;99.90;;;;;;5089048;28;20095;-73
2021/01/09 12:09:39;;;;;;;26.13;17.00;;;1.00;99.90;;;;;;5088417;28;20216;-73
2021/01/09 12:12:05;;;;;;;27.00;15.52;;;1.00;99.90;;;;;;5087211;28;20165;-73
2021/01/09 12:14:31;;;;;;;42.55;20.88;;;1.00;99.90;;;;;;5086003;28;20096;-72
2021/01/09 12:17:02;;;;;;;28.15;14.90;;;1.00;99.90;;;;;;5101211;28;20117;-73
2021/01/09 12:19:28;;;;;;;24.80;15.45;;;1.00;99.90;;;;;;5084943;28;20080;-74
2021/01/09 12:21:54;;;;;;;26.23;15.38;;;1.00;99.90;;;;;;5067377;28;20112;-75
2021/01/09 12:24:20;;;;;;;28.02;15.63;;;1.10;99.90;;;;;;5080429;28;20126;-75
2021/01/09 12:26:50;;;;;;;33.92;17.05;;;1.10;99.90;;;;;;5088731;28;20084;-74
2021/01/09 12:29:16;;;;;;;26.83;14.27;;;1.20;99.90;;;;;;5089333;28;20076;-72
2021/01/09 12:31:42;;;;;;;24.08;14.00;;;1.30;99.90;;;;;;5087749;28;20092;-73
2021/01/09 12:34:07;;;;;;;25.45;14.35;;;1.20;99.90;;;;;;5088289;28;20100;-73
2021/01/09 12:36:33;;;;;;;27.15;16.77;;;1.20;99.90;;;;;;5086107;28;20068;-73
2021/01/09 12:38:58;;;;;;;22.60;13.80;;;1.30;99.90;;;;;;5075719;28;20475;-72